Time;durP1;ratioP1;P1;durP2;ratioP2;P2;SDS_P1;SDS_P2;PMS_P1;PMS_P2;Temp;Humidity;BMP_temperature;BMP_pressure;BME280_temperature;BME280_humidity;BME280_pressure;Samples;Min_cycle;Max_cycle;Signal;HPM_P1;HPM_P2
2023/03/21 00:01:14;;;;;;;15.07;11.97;;;;;;;;;;5131131;28;20229;-81
2023/03/21 00:03:42;;;;;;;12.80;10.17;;;;;;;;;;5132179;27;20214;-81
2023/03/21 00:06:11;;;;;;;12.13;8.83;;;;;;;;;;5134977;27;20673;-82
2023/03/21 00:08:38;;;;;;;11.03;9.20;;;;;;;;;;5135915;27;20286;-81
2023/03/21 00:11:07;;;;;;;14.00;9.47;;;;;;;;;;5135329;27;20694;-81
2023/03/21 00:13:37;;;;;;;12.20;9.60;;;;;;;;;;5123103;27;20696;-82
2023/03/21 00:16:05;;;;;;;13.23;9.27;;;;;;;;;;5128485;27;20278;-81
2023/03/21 00:18:31;;;;;;;12.83;10.83;;;;;;;;;;5114702;28;20617;-81
2023/03/21 00:20:59;;;;;;;12.20;9.63;;;;;;;;;;5134481;27;20774;-81
2023/03/21 00:23:26;;;;;;;18.63;11.77;;;;;;;;;;5135048;27;20206;-81
2023/03/21 00:25:53;;;;;;;14.27;11.13;;;;;;;;;;5134796;27;20738;-81
2023/03/21 00:28:20;;;;;;;14.90;9.47;;;;;;;;;;5135406;27;20198;-82
2023/03/21 00:30:48;;;;;;;12.63;8.90;;;;;;;;;;5135187;27;20206;-81
2023/03/21 00:33:19;;;;;;;9.77;8.60;;;;;;;;;;5134621;27;20207;-81
2023/03/21 00:35:47;;;;;;;9.73;8.70;;;;;;;;;;5134782;27;20255;-81
2023/03/21 00:38:15;;;;;;;10.17;7.30;;;;;;;;;;5133663;27;20238;-81
2023/03/21 00:40:42;;;;;;;8.77;7.87;;;;;;;;;;5123051;27;20222;-81
2023/03/21 00:43:10;;;;;;;10.20;8.03;;;;;;;;;;5134961;27;20677;-81
2023/03/21 00:45:37;;;;;;;11.10;8.17;;;;;;;;;;5135118;27;20248;-81
2023/03/21 00:48:06;;;;;;;11.77;8.37;;;;;;;;;;5134822;27;20222;-81
2023/03/21 00:50:33;;;;;;;10.93;8.13;;;;;;;;;;5134409;27;20203;-81
2023/03/21 00:53:00;;;;;;;81.20;53.10;;;;;;;;;;5131705;27;20600;-81
2023/03/21 00:55:27;;;;;;;26.40;20.37;;;;;;;;;;5106643;27;20259;-83
2023/03/21 00:57:53;;;;;;;16.77;13.43;;;;;;;;;;5134174;27;20209;-81
2023/03/21 01:00:21;;;;;;;14.40;9.90;;;;;;;;;;5123629;27;20219;-81
2023/03/21 01:02:56;;;;;;;10.07;8.90;;;;;;;;;;5131495;27;20207;-81
2023/03/21 01:06:02;;;;;;;12.57;9.53;;;;;;;;;;5134160;27;20251;-81
2023/03/21 01:08:12;;;;;;;13.40;8.90;;;;;;;;;;5134272;27;20664;-81
2023/03/21 01:10:40;;;;;;;9.27;7.47;;;;;;;;;;5134092;27;20334;-81
2023/03/21 01:13:07;;;;;;;8.50;7.67;;;;;;;;;;5126024;27;20195;-81
2023/03/21 01:15:34;;;;;;;10.10;7.97;;;;;;;;;;5128373;27;20255;-82
2023/03/21 01:18:01;;;;;;;129.77;74.77;;;;;;;;;;5116202;27;20203;-81
2023/03/21 01:20:29;;;;;;;67.37;41.27;;;;;;;;;;5133971;27;20652;-81
2023/03/21 01:22:56;;;;;;;30.60;20.43;;;;;;;;;;5134198;27;20226;-81
2023/03/21 01:25:23;;;;;;;14.83;10.40;;;;;;;;;;5134005;27;20296;-81
2023/03/21 01:27:50;;;;;;;10.43;8.57;;;;;;;;;;5133937;27;20692;-81
2023/03/21 01:30:17;;;;;;;10.87;8.77;;;;;;;;;;5133955;27;20206;-81
2023/03/21 01:32:44;;;;;;;12.63;8.80;;;;;;;;;;5133453;27;20198;-81
2023/03/21 01:35:11;;;;;;;9.70;8.70;;;;;;;;;;5116733;27;20272;-82
2023/03/21 01:37:39;;;;;;;12.77;10.43;;;;;;;;;;5124422;27;20259;-81
2023/03/21 01:40:11;;;;;;;16.33;10.77;;;;;;;;;;5128918;27;20219;-81
2023/03/21 01:42:38;;;;;;;20.90;15.30;;;;;;;;;;5125357;27;20210;-81
2023/03/21 01:45:27;;;;;;;13.20;10.90;;;;;;;;;;5128354;27;20196;-81
2023/03/21 01:47:54;;;;;;;10.27;9.07;;;;;;;;;;5128374;27;20203;-81
2023/03/21 01:50:21;;;;;;;12.67;8.47;;;;;;;;;;5114915;27;20210;-82
2023/03/21 01:52:49;;;;;;;12.27;7.53;;;;;;;;;;5119707;27;20253;-81
2023/03/21 01:55:17;;;;;;;14.43;9.37;;;;;;;;;;5133934;27;20290;-82
2023/03/21 01:57:51;;;;;;;12.77;9.47;;;;;;;;;;5133576;27;20210;-81
2023/03/21 02:00:20;;;;;;;38.37;22.63;;;;;;;;;;5133080;27;20306;-81
2023/03/21 02:02:50;;;;;;;19.40;13.77;;;;;;;;;;5133262;27;20745;-81
2023/03/21 02:05:18;;;;;;;18.07;12.47;;;;;;;;;;5133326;27;20595;-82
2023/03/21 02:07:45;;;;;;;96.43;57.33;;;;;;;;;;5133118;27;20302;-81
2023/03/21 02:10:14;;;;;;;55.37;33.23;;;;;;;;;;5133481;27;20208;-81
2023/03/21 02:12:41;;;;;;;15.10;11.77;;;;;;;;;;5073797;28;20205;-81
2023/03/21 02:15:09;;;;;;;11.23;8.67;;;;;;;;;;5083519;28;20208;-81
2023/03/21 02:17:40;;;;;;;11.70;8.30;;;;;;;;;;5091832;28;20197;-81
2023/03/21 02:20:41;;;;;;;23.83;17.87;;;;;;;;;;5091954;28;20216;-81
2023/03/21 02:23:50;;;;;;;17.70;12.50;;;;;;;;;;5092166;28;20208;-81
2023/03/21 02:26:32;;;;;;;19.40;11.60;;;;;;;;;;5071336;28;20216;-81
2023/03/21 02:29:03;;;;;;;14.23;10.20;;;;;;;;;;5091685;28;20204;-81
2023/03/21 02:31:41;;;;;;;8.87;7.93;;;;;;;;;;5092077;28;20211;-81
2023/03/21 02:34:32;;;;;;;18.73;11.00;;;;;;;;;;5067341;28;20643;-81
2023/03/21 02:37:04;;;;;;;19.70;13.13;;;;;;;;;;5091492;28;20231;-81
2023/03/21 02:39:41;;;;;;;12.23;7.87;;;;;;;;;;5091704;28;20690;-82
2023/03/21 02:42:13;;;;;;;10.20;8.40;;;;;;;;;;5091852;28;20228;-81
2023/03/21 02:44:43;;;;;;;12.33;8.80;;;;;;;;;;5091119;28;20631;-81
2023/03/21 02:47:13;;;;;;;9.20;8.20;;;;;;;;;;5091572;28;20208;-81
2023/03/21 02:49:43;;;;;;;11.90;8.73;;;;;;;;;;5091261;28;20690;-81
2023/03/21 02:52:14;;;;;;;9.63;8.63;;;;;;;;;;5091566;28;20208;-81
2023/03/21 02:54:42;;;;;;;10.57;8.50;;;;;;;;;;5091437;28;20622;-81
2023/03/21 02:57:09;;;;;;;9.23;8.23;;;;;;;;;;5091259;28;20200;-81
2023/03/21 02:59:37;;;;;;;11.60;9.03;;;;;;;;;;5091432;28;20204;-81
2023/03/21 03:02:03;;;;;;;10.23;9.20;;;;;;;;;;5090956;28;20669;-81
2023/03/21 03:04:30;;;;;;;12.73;9.30;;;;;;;;;;5091435;28;20192;-81
2023/03/21 03:07:13;;;;;;;12.37;8.90;;;;;;;;;;5091078;28;20207;-81
2023/03/21 03:09:56;;;;;;;10.77;8.57;;;;;;;;;;5065352;28;20207;-81
2023/03/21 03:12:30;;;;;;;10.80;8.70;;;;;;;;;;5106970;28;20738;-81
2023/03/21 03:15:02;;;;;;;12.60;9.13;;;;;;;;;;5101627;28;20597;-80
2023/03/21 03:17:39;;;;;;;15.17;9.77;;;;;;;;;;5111174;28;20199;-81
2023/03/21 03:20:25;;;;;;;11.70;9.33;;;;;;;;;;5111503;28;20208;-81
2023/03/21 03:23:02;;;;;;;16.63;9.73;;;;;;;;;;5088698;28;20641;-81
2023/03/21 03:25:32;;;;;;;11.73;9.17;;;;;;;;;;5097585;28;20195;-81
2023/03/21 03:28:00;;;;;;;9.73;7.37;;;;;;;;;;5111094;28;20199;-81
2023/03/21 03:30:28;;;;;;;11.00;8.40;;;;;;;;;;5111064;28;20203;-81
2023/03/21 03:32:57;;;;;;;17.00;12.43;;;;;;;;;;5100135;28;20200;-81
2023/03/21 03:35:25;;;;;;;24.97;15.73;;;;;;;;;;5109051;28;20192;-81
2023/03/21 03:37:56;;;;;;;10.13;8.40;;;;;;;;;;5111259;28;20199;-81
2023/03/21 03:40:27;;;;;;;8.93;7.37;;;;;;;;;;5110238;28;20746;-81
2023/03/21 03:42:56;;;;;;;11.33;7.80;;;;;;;;;;5111012;28;20207;-81
2023/03/21 03:45:27;;;;;;;10.67;7.50;;;;;;;;;;5111252;28;20192;-81
2023/03/21 03:47:58;;;;;;;15.30;9.37;;;;;;;;;;5110984;28;20659;-81
2023/03/21 03:50:28;;;;;;;21.30;13.27;;;;;;;;;;5111336;28;20219;-81
2023/03/21 03:52:59;;;;;;;21.87;13.43;;;;;;;;;;5107712;28;20199;-82
2023/03/21 03:55:33;;;;;;;16.23;11.87;;;;;;;;;;5090503;28;20204;-82
2023/03/21 03:58:00;;;;;;;12.67;10.07;;;;;;;;;;5111392;28;20217;-81
2023/03/21 04:00:27;;;;;;;10.20;8.17;;;;;;;;;;5110503;28;20207;-82
2023/03/21 04:02:54;;;;;;;8.17;7.33;;;;;;;;;;5110868;28;20206;-82
2023/03/21 04:05:21;;;;;;;10.27;8.37;;;;;;;;;;5110258;28;20636;-82
2023/03/21 04:07:49;;;;;;;15.47;7.53;;;;;;;;;;5091980;28;20261;-82
2023/03/21 04:10:16;;;;;;;14.13;9.20;;;;;;;;;;5089738;28;20584;-81
2023/03/21 04:12:44;;;;;;;12.10;9.40;;;;;;;;;;5110978;28;20199;-82
2023/03/21 04:15:12;;;;;;;10.27;9.10;;;;;;;;;;5110983;28;20212;-81
2023/03/21 04:17:39;;;;;;;13.37;10.30;;;;;;;;;;5101916;28;20586;-82
2023/03/21 04:20:07;;;;;;;12.10;8.80;;;;;;;;;;5091007;28;20303;-82
2023/03/21 04:22:35;;;;;;;9.80;8.67;;;;;;;;;;5104479;28;20226;-82
2023/03/21 04:25:04;;;;;;;10.27;8.60;;;;;;;;;;5118080;28;20212;-81
2023/03/21 04:27:31;;;;;;;24.10;14.53;;;;;;;;;;5106083;28;20253;-81
2023/03/21 04:29:59;;;;;;;16.43;12.80;;;;;;;;;;5110621;28;20257;-81
2023/03/21 04:32:26;;;;;;;14.67;11.27;;;;;;;;;;5091585;28;20251;-82
2023/03/21 04:34:53;;;;;;;12.87;10.40;;;;;;;;;;5110417;28;20200;-80
2023/03/21 04:37:22;;;;;;;9.20;7.80;;;;;;;;;;5092706;28;20251;-84
2023/03/21 04:39:49;;;;;;;15.60;9.93;;;;;;;;;;5080403;28;20208;-83
2023/03/21 04:42:18;;;;;;;22.60;16.00;;;;;;;;;;5087268;28;20232;-83
2023/03/21 04:44:45;;;;;;;26.90;16.03;;;;;;;;;;5096243;28;20290;-83
2023/03/21 04:47:14;;;;;;;27.53;17.23;;;;;;;;;;5098230;28;20205;-83
2023/03/21 04:49:42;;;;;;;13.67;11.53;;;;;;;;;;5109615;28;20667;-83
2023/03/21 04:52:09;;;;;;;12.10;10.60;;;;;;;;;;5114090;28;20210;-83
2023/03/21 04:54:36;;;;;;;15.33;11.00;;;;;;;;;;5107932;28;20307;-84
2023/03/21 04:57:03;;;;;;;31.57;18.90;;;;;;;;;;5076388;28;20208;-83
2023/03/21 04:59:31;;;;;;;51.27;35.33;;;;;;;;;;5093323;28;20200;-82
2023/03/21 05:01:58;;;;;;;15.57;13.63;;;;;;;;;;5092929;28;20231;-83
2023/03/21 05:04:27;;;;;;;52.57;37.73;;;;;;;;;;5095721;28;20261;-83
2023/03/21 05:06:56;;;;;;;39.17;25.50;;;;;;;;;;5099676;28;20655;-82
2023/03/21 05:09:23;;;;;;;19.17;17.17;;;;;;;;;;5105802;28;20283;-82
2023/03/21 05:11:50;;;;;;;14.33;12.10;;;;;;;;;;5102872;28;20219;-82
2023/03/21 05:14:20;;;;;;;18.03;13.40;;;;;;;;;;5095465;28;20200;-82
2023/03/21 05:16:51;;;;;;;18.57;14.23;;;;;;;;;;5092914;28;20258;-82
2023/03/21 05:19:19;;;;;;;18.73;16.27;;;;;;;;;;5113269;28;20218;-83
2023/03/21 05:21:47;;;;;;;10.90;9.80;;;;;;;;;;5113696;28;20237;-84
2023/03/21 05:24:16;;;;;;;10.37;9.10;;;;;;;;;;5099326;28;20256;-84
2023/03/21 05:26:49;;;;;;;12.43;10.67;;;;;;;;;;5113761;28;20200;-84
2023/03/21 05:29:16;;;;;;;13.20;8.83;;;;;;;;;;5080808;28;20205;-84
2023/03/21 05:31:42;;;;;;;18.53;16.73;;;;;;;;;;5092981;28;20262;-83
2023/03/21 05:34:09;;;;;;;12.77;11.00;;;;;;;;;;5101419;28;20203;-84
2023/03/21 05:36:36;;;;;;;19.70;16.33;;;;;;;;;;5112852;28;20670;-83
2023/03/21 05:39:07;;;;;;;57.13;30.10;;;;;;;;;;5104926;28;20253;-83
2023/03/21 05:41:33;;;;;;;94.93;51.87;;;;;;;;;;5106211;28;20249;-83
2023/03/21 05:44:00;;;;;;;34.73;25.17;;;;;;;;;;5101862;28;20219;-83
2023/03/21 05:46:27;;;;;;;23.03;17.13;;;;;;;;;;5112752;28;20207;-83
2023/03/21 05:48:54;;;;;;;24.07;18.90;;;;;;;;;;5113336;28;20231;-83
2023/03/21 05:51:21;;;;;;;15.57;13.27;;;;;;;;;;5110774;28;20612;-84
2023/03/21 05:53:48;;;;;;;12.07;9.87;;;;;;;;;;5102042;28;20261;-84
2023/03/21 05:56:16;;;;;;;11.80;10.00;;;;;;;;;;5110202;28;20674;-85
2023/03/21 05:58:43;;;;;;;11.87;9.70;;;;;;;;;;5102227;28;20639;-85
2023/03/21 06:01:10;;;;;;;13.83;9.83;;;;;;;;;;5112181;28;20664;-85
2023/03/21 06:03:36;;;;;;;12.33;10.27;;;;;;;;;;5112600;28;20199;-85
2023/03/21 06:06:03;;;;;;;13.40;10.13;;;;;;;;;;5112797;28;20253;-85
2023/03/21 06:08:30;;;;;;;14.87;12.80;;;;;;;;;;5113057;28;20212;-84
2023/03/21 06:10:57;;;;;;;16.13;11.37;;;;;;;;;;5108341;28;20232;-85
2023/03/21 06:13:25;;;;;;;17.23;11.13;;;;;;;;;;5103322;28;20332;-85
2023/03/21 06:15:52;;;;;;;15.43;10.93;;;;;;;;;;5098626;28;20777;-84
2023/03/21 06:18:19;;;;;;;13.80;10.03;;;;;;;;;;5101428;28;20204;-85
2023/03/21 06:20:45;;;;;;;21.67;11.43;;;;;;;;;;5110930;28;20234;-85
2023/03/21 06:23:12;;;;;;;17.00;10.53;;;;;;;;;;5100678;28;20227;-85
2023/03/21 06:25:39;;;;;;;19.17;11.77;;;;;;;;;;5096995;28;20199;-85
2023/03/21 06:28:05;;;;;;;14.00;12.50;;;;;;;;;;5101202;28;20224;-85
2023/03/21 06:30:35;;;;;;;18.10;11.13;;;;;;;;;;5110493;28;20203;-85
2023/03/21 06:33:02;;;;;;;13.70;12.30;;;;;;;;;;5100063;28;20204;-84
2023/03/21 06:35:28;;;;;;;22.47;17.23;;;;;;;;;;5097747;28;20200;-85
2023/03/21 06:37:57;;;;;;;23.70;17.57;;;;;;;;;;5112504;28;20200;-85
2023/03/21 06:40:24;;;;;;;24.70;14.63;;;;;;;;;;5111694;28;20254;-84
2023/03/21 06:42:51;;;;;;;15.53;11.00;;;;;;;;;;5112014;28;20223;-85
2023/03/21 06:45:17;;;;;;;21.60;11.63;;;;;;;;;;5098733;28;20264;-85
2023/03/21 06:47:46;;;;;;;20.93;11.83;;;;;;;;;;5111866;28;20199;-84
2023/03/21 06:50:13;;;;;;;24.90;17.83;;;;;;;;;;5085134;28;20195;-85
2023/03/21 06:52:40;;;;;;;56.07;32.63;;;;;;;;;;5098079;28;20208;-84
2023/03/21 06:55:08;;;;;;;23.13;15.70;;;;;;;;;;5104624;28;20204;-84
2023/03/21 06:57:34;;;;;;;22.93;14.13;;;;;;;;;;5105021;28;20571;-84
2023/03/21 07:00:01;;;;;;;12.73;10.47;;;;;;;;;;5098979;28;20273;-84
2023/03/21 07:02:29;;;;;;;29.37;19.63;;;;;;;;;;5111117;28;20237;-84
2023/03/21 07:04:57;;;;;;;51.67;32.10;;;;;;;;;;5091324;28;20295;-84
2023/03/21 07:07:26;;;;;;;21.57;14.80;;;;;;;;;;5106581;28;20569;-84
2023/03/21 07:09:52;;;;;;;19.47;10.63;;;;;;;;;;5112009;28;20200;-84
2023/03/21 07:12:19;;;;;;;11.23;9.73;;;;;;;;;;5110624;28;20287;-84
2023/03/21 07:14:46;;;;;;;13.87;10.07;;;;;;;;;;5103688;28;20239;-85
2023/03/21 07:17:12;;;;;;;9.90;8.90;;;;;;;;;;5091067;28;20197;-84
2023/03/21 07:19:39;;;;;;;16.40;9.30;;;;;;;;;;5091614;28;20212;-85
2023/03/21 07:22:07;;;;;;;13.13;8.63;;;;;;;;;;5106272;28;20801;-84
2023/03/21 07:24:34;;;;;;;11.30;8.50;;;;;;;;;;5111873;28;20191;-85
2023/03/21 07:27:01;;;;;;;17.50;10.23;;;;;;;;;;5111280;28;20206;-84
2023/03/21 07:29:28;;;;;;;13.80;10.37;;;;;;;;;;5111986;28;20196;-84
2023/03/21 07:31:54;;;;;;;12.27;8.90;;;;;;;;;;5098013;28;20212;-84
2023/03/21 07:34:21;;;;;;;10.37;8.10;;;;;;;;;;5102093;28;20206;-85
2023/03/21 07:36:48;;;;;;;11.50;8.97;;;;;;;;;;5104790;28;20202;-85
2023/03/21 07:39:16;;;;;;;8.97;7.30;;;;;;;;;;5090998;28;20254;-84
2023/03/21 07:41:43;;;;;;;10.83;7.77;;;;;;;;;;5094288;28;20314;-85
2023/03/21 07:44:10;;;;;;;12.80;9.30;;;;;;;;;;5110930;28;20205;-84
2023/03/21 07:46:37;;;;;;;13.03;8.43;;;;;;;;;;5111071;28;20629;-84
2023/03/21 07:49:04;;;;;;;9.73;8.13;;;;;;;;;;5111317;28;20591;-84
2023/03/21 07:51:34;;;;;;;9.93;7.20;;;;;;;;;;5097287;28;20277;-84
2023/03/21 07:54:00;;;;;;;13.17;7.40;;;;;;;;;;5100213;28;20572;-84
2023/03/21 07:56:29;;;;;;;9.93;8.43;;;;;;;;;;5108409;28;20204;-81
2023/03/21 07:58:56;;;;;;;8.07;6.50;;;;;;;;;;5099129;28;20682;-82
2023/03/21 08:01:23;;;;;;;8.20;7.07;;;;;;;;;;5109121;28;20196;-82
2023/03/21 08:03:52;;;;;;;12.13;7.73;;;;;;;;;;5110897;28;20227;-82
2023/03/21 08:06:19;;;;;;;8.33;6.87;;;;;;;;;;5110315;28;20195;-83
2023/03/21 08:08:46;;;;;;;11.03;6.70;;;;;;;;;;5110801;28;20257;-83
2023/03/21 08:11:13;;;;;;;10.83;8.10;;;;;;;;;;5111019;28;20230;-82
2023/03/21 08:13:41;;;;;;;16.40;7.37;;;;;;;;;;5111149;28;20234;-83
2023/03/21 08:16:10;;;;;;;7.87;6.37;;;;;;;;;;5110872;28;20673;-82
2023/03/21 08:18:36;;;;;;;9.93;7.43;;;;;;;;;;5097421;28;20280;-83
2023/03/21 08:21:03;;;;;;;11.10;7.50;;;;;;;;;;5110976;28;20273;-82
2023/03/21 08:23:31;;;;;;;12.80;7.07;;;;;;;;;;5110003;28;20234;-82
2023/03/21 08:25:58;;;;;;;14.90;7.83;;;;;;;;;;5100431;28;20619;-82
2023/03/21 08:28:25;;;;;;;14.10;8.17;;;;;;;;;;5100821;28;20748;-82
2023/03/21 08:30:54;;;;;;;14.03;9.70;;;;;;;;;;5114471;28;20199;-82
2023/03/21 08:33:21;;;;;;;12.43;10.67;;;;;;;;;;5114506;28;20200;-82
2023/03/21 08:35:49;;;;;;;24.30;12.30;;;;;;;;;;5114681;28;20210;-82
2023/03/21 08:38:16;;;;;;;17.40;9.80;;;;;;;;;;5114266;28;20203;-82
2023/03/21 08:40:42;;;;;;;11.27;8.63;;;;;;;;;;5114596;28;20211;-82
2023/03/21 08:43:09;;;;;;;17.27;9.60;;;;;;;;;;5112422;28;20223;-82
2023/03/21 08:45:36;;;;;;;21.97;12.90;;;;;;;;;;5102769;28;20682;-82
2023/03/21 08:48:05;;;;;;;8.77;7.97;;;;;;;;;;5112462;28;20204;-82
2023/03/21 08:50:32;;;;;;;12.83;9.00;;;;;;;;;;5103191;28;20206;-82
2023/03/21 08:52:59;;;;;;;15.80;10.37;;;;;;;;;;5114451;28;20215;-82
2023/03/21 08:55:25;;;;;;;10.70;8.43;;;;;;;;;;5114529;28;20203;-81
2023/03/21 08:57:52;;;;;;;15.03;8.20;;;;;;;;;;5113762;28;20198;-81
2023/03/21 09:00:20;;;;;;;10.90;8.30;;;;;;;;;;5114153;28;20204;-82
2023/03/21 09:02:50;;;;;;;14.50;8.57;;;;;;;;;;5100111;28;20314;-83
2023/03/21 09:05:19;;;;;;;12.93;7.53;;;;;;;;;;5103534;28;20197;-82
2023/03/21 09:07:46;;;;;;;12.83;9.00;;;;;;;;;;5111881;28;20213;-84
2023/03/21 09:10:17;;;;;;;13.50;8.90;;;;;;;;;;5102635;28;20209;-83
2023/03/21 09:12:43;;;;;;;12.47;8.53;;;;;;;;;;5098106;28;20211;-82
2023/03/21 09:15:12;;;;;;;25.47;14.83;;;;;;;;;;5114088;28;20250;-82
2023/03/21 09:17:41;;;;;;;16.30;8.87;;;;;;;;;;5113633;28;20279;-82
2023/03/21 09:20:10;;;;;;;13.03;8.60;;;;;;;;;;5113773;28;20602;-83
2023/03/21 09:22:39;;;;;;;15.03;8.23;;;;;;;;;;5093137;28;20235;-82
2023/03/21 09:25:10;;;;;;;16.97;9.30;;;;;;;;;;5107057;28;20954;-82
2023/03/21 09:27:37;;;;;;;15.43;9.53;;;;;;;;;;5086949;28;20758;-82
2023/03/21 09:30:04;;;;;;;10.43;8.93;;;;;;;;;;5113479;28;20231;-82
2023/03/21 09:32:31;;;;;;;13.57;8.67;;;;;;;;;;5113429;28;20207;-82
2023/03/21 09:34:58;;;;;;;9.17;8.10;;;;;;;;;;5112795;28;20203;-82
2023/03/21 09:37:25;;;;;;;14.97;8.67;;;;;;;;;;5104596;28;20197;-82
2023/03/21 09:39:55;;;;;;;12.30;7.63;;;;;;;;;;5107102;28;20199;-82
2023/03/21 09:42:32;;;;;;;17.10;8.63;;;;;;;;;;5104631;28;20224;-82
2023/03/21 09:45:07;;;;;;;12.20;9.07;;;;;;;;;;5092885;28;20204;-82
2023/03/21 09:47:44;;;;;;;13.63;8.57;;;;;;;;;;5103979;28;20260;-82
2023/03/21 09:50:16;;;;;;;10.90;8.20;;;;;;;;;;5112914;28;20590;-82
2023/03/21 09:52:46;;;;;;;15.40;7.70;;;;;;;;;;5099476;28;20208;-82
2023/03/21 09:55:18;;;;;;;13.93;7.03;;;;;;;;;;5087102;28;20206;-82
2023/03/21 09:57:48;;;;;;;9.67;7.47;;;;;;;;;;5113444;28;20210;-82
2023/03/21 10:00:21;;;;;;;11.23;8.40;;;;;;;;;;5112914;28;20207;-82
2023/03/21 10:02:52;;;;;;;9.83;8.53;;;;;;;;;;5109469;28;20292;-82
2023/03/21 10:05:21;;;;;;;13.40;8.57;;;;;;;;;;5103401;28;20196;-82
2023/03/21 10:07:52;;;;;;;12.57;8.27;;;;;;;;;;5099396;28;20195;-82
2023/03/21 10:10:23;;;;;;;9.20;8.30;;;;;;;;;;5100790;28;20757;-82
2023/03/21 10:12:51;;;;;;;13.23;7.67;;;;;;;;;;5111536;28;20240;-82
2023/03/21 10:15:20;;;;;;;12.37;8.67;;;;;;;;;;5112816;28;20208;-82
2023/03/21 10:17:51;;;;;;;12.40;7.23;;;;;;;;;;5092359;28;20236;-85
2023/03/21 10:20:20;;;;;;;10.17;6.97;;;;;;;;;;5105830;28;20203;-82
2023/03/21 10:22:49;;;;;;;15.93;9.63;;;;;;;;;;5112335;28;20252;-82
2023/03/21 10:25:17;;;;;;;42.17;21.80;;;;;;;;;;5099841;28;20578;-82
2023/03/21 10:27:46;;;;;;;44.70;25.57;;;;;;;;;;5112609;28;20202;-81
2023/03/21 10:30:21;;;;;;;18.87;12.23;;;;;;;;;;5112121;28;20201;-81
2023/03/21 10:32:48;;;;;;;19.90;13.67;;;;;;;;;;5112246;28;20644;-82
2023/03/21 10:35:14;;;;;;;20.23;14.23;;;;;;;;;;5112201;28;20663;-82
2023/03/21 10:37:41;;;;;;;14.53;10.87;;;;;;;;;;5112508;28;20571;-81
2023/03/21 10:40:15;;;;;;;13.80;10.20;;;;;;;;;;5098672;28;20253;-81
2023/03/21 10:42:42;;;;;;;15.83;10.60;;;;;;;;;;5111974;28;20221;-81
2023/03/21 10:45:17;;;;;;;15.33;12.37;;;;;;;;;;5112151;28;20199;-82
2023/03/21 10:47:47;;;;;;;16.50;12.73;;;;;;;;;;5111937;28;20207;-82
2023/03/21 10:50:16;;;;;;;14.53;11.97;;;;;;;;;;5078529;28;20675;-82
2023/03/21 10:52:47;;;;;;;16.03;13.20;;;;;;;;;;5106211;28;20207;-81
2023/03/21 10:55:21;;;;;;;20.77;15.17;;;;;;;;;;5112203;28;20260;-81
2023/03/21 10:57:48;;;;;;;26.20;19.43;;;;;;;;;;5111737;28;20222;-85
2023/03/21 11:00:21;;;;;;;28.87;19.67;;;;;;;;;;5111310;28;20207;-81
2023/03/21 11:02:50;;;;;;;18.80;15.00;;;;;;;;;;5111440;28;20223;-82
2023/03/21 11:05:21;;;;;;;11.97;9.87;;;;;;;;;;5111765;28;20199;-82
2023/03/21 11:07:49;;;;;;;22.67;16.07;;;;;;;;;;5097789;28;20261;-85
2023/03/21 11:10:27;;;;;;;22.37;17.97;;;;;;;;;;5111691;28;20196;-82
2023/03/21 11:12:56;;;;;;;15.73;13.87;;;;;;;;;;5111970;28;20213;-82
2023/03/21 11:15:32;;;;;;;24.43;14.93;;;;;;;;;;5111143;28;20211;-82
2023/03/21 11:18:00;;;;;;;19.20;13.83;;;;;;;;;;5099866;28;20283;-82
2023/03/21 11:20:30;;;;;;;11.40;10.00;;;;;;;;;;5110850;28;20199;-82
2023/03/21 11:22:57;;;;;;;17.20;14.17;;;;;;;;;;5111490;28;20271;-82
2023/03/21 11:25:30;;;;;;;19.77;13.63;;;;;;;;;;5110919;28;20295;-82
2023/03/21 11:27:57;;;;;;;18.83;14.33;;;;;;;;;;5111301;28;20587;-82
2023/03/21 11:30:27;;;;;;;22.33;17.90;;;;;;;;;;5107840;28;20250;-83
2023/03/21 11:32:55;;;;;;;19.87;15.77;;;;;;;;;;5101675;28;20207;-82
2023/03/21 11:35:24;;;;;;;14.63;11.20;;;;;;;;;;5110527;28;20257;-83
2023/03/21 11:37:52;;;;;;;17.90;13.00;;;;;;;;;;5099634;28;20283;-82
2023/03/21 11:40:22;;;;;;;24.93;17.90;;;;;;;;;;5096571;28;20199;-83
2023/03/21 11:42:50;;;;;;;16.93;11.27;;;;;;;;;;5110841;28;20210;-82
2023/03/21 11:45:20;;;;;;;9.37;8.37;;;;;;;;;;5104959;28;20204;-82
2023/03/21 11:47:49;;;;;;;12.90;8.40;;;;;;;;;;5090536;28;20224;-82
2023/03/21 11:50:24;;;;;;;13.30;10.30;;;;;;;;;;5098367;28;20203;-82
2023/03/21 11:52:59;;;;;;;10.77;7.63;;;;;;;;;;5108671;28;20195;-83
2023/03/21 11:55:35;;;;;;;16.13;11.90;;;;;;;;;;5100580;28;20203;-83
2023/03/21 11:58:14;;;;;;;10.87;9.57;;;;;;;;;;5111024;28;20278;-82
2023/03/21 12:00:46;;;;;;;13.57;9.00;;;;;;;;;;5100051;28;20204;-83
2023/03/21 12:03:39;;;;;;;16.30;10.87;;;;;;;;;;5082029;28;20231;-81
2023/03/21 12:06:13;;;;;;;11.67;7.40;;;;;;;;;;5112673;28;20254;-82
2023/03/21 12:08:45;;;;;;;14.93;10.00;;;;;;;;;;5115343;28;20646;-82
2023/03/21 12:11:16;;;;;;;13.27;9.07;;;;;;;;;;5106578;28;20289;-82
2023/03/21 12:13:57;;;;;;;11.00;8.23;;;;;;;;;;5081718;28;20300;-82
2023/03/21 12:16:42;;;;;;;10.53;7.43;;;;;;;;;;5074113;28;20640;-82
2023/03/21 12:19:43;;;;;;;12.33;9.60;;;;;;;;;;5092131;28;20587;-82
2023/03/21 12:22:13;;;;;;;10.13;7.47;;;;;;;;;;5094352;28;20259;-82
2023/03/21 12:24:42;;;;;;;10.50;7.93;;;;;;;;;;5084135;28;20220;-82
2023/03/21 12:27:15;;;;;;;14.27;7.63;;;;;;;;;;5077542;28;20204;-82
2023/03/21 12:30:09;;;;;;;10.33;8.30;;;;;;;;;;5094419;28;20233;-82
2023/03/21 12:32:48;;;;;;;10.10;7.23;;;;;;;;;;5070807;28;20216;-81
2023/03/21 12:35:24;;;;;;;10.23;7.47;;;;;;;;;;5075112;28;20234;-83
2023/03/21 12:37:58;;;;;;;8.57;7.67;;;;;;;;;;5063266;28;20731;-83
2023/03/21 12:40:37;;;;;;;10.00;8.37;;;;;;;;;;5071652;28;20196;-82
2023/03/21 12:43:21;;;;;;;10.87;8.80;;;;;;;;;;5062796;28;20264;-79
2023/03/21 12:45:50;;;;;;;11.77;7.67;;;;;;;;;;5073505;28;20205;-79
2023/03/21 12:48:23;;;;;;;11.77;8.73;;;;;;;;;;5087528;28;20196;-81
2023/03/21 12:50:54;;;;;;;15.20;8.77;;;;;;;;;;5080155;28;20640;-81
2023/03/21 12:53:34;;;;;;;11.97;7.60;;;;;;;;;;5093929;28;20644;-81
2023/03/21 12:56:04;;;;;;;10.40;8.60;;;;;;;;;;5093207;28;20201;-81
2023/03/21 12:58:42;;;;;;;17.33;9.33;;;;;;;;;;5092530;28;20224;-81
2023/03/21 13:01:09;;;;;;;10.93;7.47;;;;;;;;;;5093782;28;20232;-81
2023/03/21 13:03:38;;;;;;;8.77;7.37;;;;;;;;;;5093541;28;20224;-81
2023/03/21 13:06:09;;;;;;;8.13;7.30;;;;;;;;;;5094059;28;20235;-81
2023/03/21 13:08:38;;;;;;;13.57;9.20;;;;;;;;;;5090168;28;20206;-81
2023/03/21 13:11:05;;;;;;;10.17;7.60;;;;;;;;;;5090921;28;20297;-81
2023/03/21 13:13:35;;;;;;;13.00;8.50;;;;;;;;;;5114053;28;20201;-81
2023/03/21 13:16:08;;;;;;;19.77;9.00;;;;;;;;;;5113441;28;20197;-81
2023/03/21 13:18:44;;;;;;;10.67;7.13;;;;;;;;;;5099446;28;20210;-80
2023/03/21 13:21:15;;;;;;;8.17;7.23;;;;;;;;;;5113298;28;20216;-81
2023/03/21 13:23:56;;;;;;;15.70;9.60;;;;;;;;;;5099841;28;20780;-81
2023/03/21 13:26:32;;;;;;;16.70;8.40;;;;;;;;;;5104406;28;20752;-82
2023/03/21 13:28:59;;;;;;;21.93;9.93;;;;;;;;;;5113234;28;20201;-81
2023/03/21 13:31:26;;;;;;;20.83;10.90;;;;;;;;;;5113153;28;20620;-81
2023/03/21 13:33:54;;;;;;;9.73;7.27;;;;;;;;;;5099610;28;20675;-82
2023/03/21 13:36:25;;;;;;;15.50;10.90;;;;;;;;;;5113340;28;20208;-80
2023/03/21 13:38:54;;;;;;;13.93;9.93;;;;;;;;;;5113644;28;20202;-81
2023/03/21 13:41:27;;;;;;;13.10;10.67;;;;;;;;;;5133304;27;20202;-81
2023/03/21 13:43:56;;;;;;;12.00;10.33;;;;;;;;;;5133615;27;20230;-81
2023/03/21 13:46:36;;;;;;;14.60;9.43;;;;;;;;;;5134380;27;20199;-81
2023/03/21 13:49:15;;;;;;;30.97;16.73;;;;;;;;;;5133647;27;20292;-81
2023/03/21 13:51:45;;;;;;;23.10;16.47;;;;;;;;;;5119534;27;20697;-81
2023/03/21 13:54:29;;;;;;;15.20;11.90;;;;;;;;;;5120097;27;20209;-80
2023/03/21 13:57:00;;;;;;;16.07;12.20;;;;;;;;;;5133599;27;20200;-81
2023/03/21 13:59:39;;;;;;;16.13;11.37;;;;;;;;;;5133434;27;20329;-81
2023/03/21 14:02:22;;;;;;;17.47;10.93;;;;;;;;;;5133931;27;20620;-81
2023/03/21 14:04:54;;;;;;;11.27;9.00;;;;;;;;;;5107811;27;20710;-81
2023/03/21 14:07:27;;;;;;;10.87;9.67;;;;;;;;;;5133312;27;20199;-80
2023/03/21 14:09:57;;;;;;;12.73;10.57;;;;;;;;;;5133498;27;20289;-81
2023/03/21 14:12:25;;;;;;;11.77;9.63;;;;;;;;;;5132366;27;20740;-81
2023/03/21 14:14:55;;;;;;;7.67;6.80;;;;;;;;;;5133333;27;20583;-80
2023/03/21 14:17:24;;;;;;;8.40;7.30;;;;;;;;;;5132479;27;20223;-81
2023/03/21 14:19:52;;;;;;;8.70;7.90;;;;;;;;;;5123204;27;20207;-81
2023/03/21 14:22:19;;;;;;;8.93;7.37;;;;;;;;;;5128875;27;20207;-80
2023/03/21 14:24:55;;;;;;;10.63;9.73;;;;;;;;;;5132997;27;20231;-80
2023/03/21 14:27:22;;;;;;;12.40;8.73;;;;;;;;;;5132884;27;20195;-81
2023/03/21 14:29:50;;;;;;;11.20;7.03;;;;;;;;;;5132734;27;20285;-80
2023/03/21 14:32:19;;;;;;;9.43;8.30;;;;;;;;;;5132334;27;20285;-81
2023/03/21 14:34:47;;;;;;;11.90;7.43;;;;;;;;;;5132661;27;20747;-81
2023/03/21 14:37:27;;;;;;;13.23;10.87;;;;;;;;;;5099089;28;20203;-80
2023/03/21 14:39:59;;;;;;;11.57;10.03;;;;;;;;;;5128408;27;20202;-80
2023/03/21 14:42:26;;;;;;;10.93;9.77;;;;;;;;;;5133105;27;20623;-81